Time;durP1;ratioP1;P1;durP2;ratioP2;P2;SDS_P1;SDS_P2;PMS_P1;PMS_P2;Temp;Humidity;BMP_temperature;BMP_pressure;BME280_temperature;BME280_humidity;BME280_pressure;Samples;Min_cycle;Max_cycle;Signal;HPM_P1;HPM_P2
2022/12/16 00:01:24;;;;;;;22.00;8.00;;;;;;;1.73;100.00;97834.88;4484181;31;20122;-72
2022/12/16 00:03:54;;;;;;;14.68;6.97;;;;;;;1.74;100.00;97829.63;4484510;31;20221;-72
2022/12/16 00:06:24;;;;;;;26.50;8.32;;;;;;;1.79;100.00;97818.97;4484382;31;20160;-72
2022/12/16 00:08:51;;;;;;;25.33;6.93;;;;;;;1.85;100.00;97823.72;4478928;31;20176;-72
2022/12/16 00:11:19;;;;;;;18.10;8.10;;;;;;;1.88;100.00;97818.34;4468563;32;20100;-72
2022/12/16 00:13:47;;;;;;;21.02;6.32;;;;;;;1.88;100.00;97817.53;4468537;32;20485;-72
2022/12/16 00:16:16;;;;;;;16.15;6.55;;;;;;;1.81;100.00;97817.09;4468583;32;20140;-72
2022/12/16 00:18:43;;;;;;;16.40;6.93;;;;;;;1.93;100.00;97811.09;4468605;32;20164;-72
2022/12/16 00:21:11;;;;;;;15.02;6.15;;;;;;;1.96;100.00;97817.78;4475613;32;20467;-72
2022/12/16 00:23:40;;;;;;;15.63;5.82;;;;;;;1.91;100.00;97815.53;4484335;31;20187;-72
2022/12/16 00:26:07;;;;;;;19.73;7.03;;;;;;;1.95;100.00;97806.66;4484238;31;20508;-72
2022/12/16 00:28:35;;;;;;;14.90;5.93;;;;;;;1.99;100.00;97815.00;4484382;31;20092;-72
2022/12/16 00:31:02;;;;;;;14.52;5.90;;;;;;;2.06;100.00;97805.91;4484016;31;20550;-72
2022/12/16 00:33:29;;;;;;;18.37;4.87;;;;;;;1.96;100.00;97804.88;4484304;31;20165;-72
2022/12/16 00:35:57;;;;;;;13.60;6.78;;;;;;;1.99;100.00;97801.28;4484092;31;20099;-72
2022/12/16 00:38:25;;;;;;;19.15;6.68;;;;;;;2.01;100.00;97804.56;4483885;31;20168;-72
2022/12/16 00:40:52;;;;;;;15.30;6.90;;;;;;;2.02;100.00;97807.03;4484023;31;20231;-72
2022/12/16 00:43:19;;;;;;;13.50;5.85;;;;;;;2.08;100.00;97811.78;4483692;31;20537;-72
2022/12/16 00:45:47;;;;;;;15.80;6.32;;;;;;;2.08;100.00;97804.03;4483932;31;20108;-72
2022/12/16 00:48:14;;;;;;;14.65;5.78;;;;;;;1.99;100.00;97798.69;4483744;31;20156;-72
2022/12/16 00:50:49;;;;;;;17.15;5.78;;;;;;;2.11;100.00;97803.81;4483899;31;20114;-72
2022/12/16 00:53:19;;;;;;;15.13;6.55;;;;;;;2.07;100.00;97806.72;4483830;31;20171;-72
2022/12/16 00:55:46;;;;;;;15.70;6.82;;;;;;;1.96;100.00;97794.56;4483757;31;20089;-72
2022/12/16 00:58:14;;;;;;;17.60;6.45;;;;;;;2.04;100.00;97797.41;4483577;31;20152;-72
2022/12/16 01:00:41;;;;;;;13.02;6.22;;;;;;;2.04;100.00;97797.41;4483800;31;20193;-72
2022/12/16 01:03:08;;;;;;;20.42;6.53;;;;;;;2.07;100.00;97784.28;4483686;32;20096;-72
2022/12/16 01:05:37;;;;;;;12.07;5.35;;;;;;;2.06;100.00;97774.91;4483801;32;20210;-72
2022/12/16 01:08:05;;;;;;;18.15;6.97;;;;;;;2.15;100.00;97773.44;4483042;31;20557;-72
2022/12/16 01:10:32;;;;;;;12.68;6.15;;;;;;;2.24;100.00;97757.28;4467771;32;20084;-72
2022/12/16 01:12:59;;;;;;;13.13;5.65;;;;;;;2.26;100.00;97757.97;4469563;32;20118;-72
2022/12/16 01:15:26;;;;;;;12.50;5.90;;;;;;;2.23;100.00;97734.94;4470178;32;20363;-72
2022/12/16 01:17:53;;;;;;;12.73;6.32;;;;;;;2.35;100.00;97740.16;4469981;32;20092;-72
2022/12/16 01:20:21;;;;;;;20.88;7.07;;;;;;;2.42;100.00;97738.78;4471781;32;20115;-72
2022/12/16 01:22:48;;;;;;;11.82;5.78;;;;;;;2.31;100.00;97724.03;4485770;32;20148;-72
2022/12/16 01:25:16;;;;;;;12.50;5.80;;;;;;;2.30;100.00;97712.91;4485974;31;20076;-72
2022/12/16 01:27:43;;;;;;;13.45;6.37;;;;;;;2.31;100.00;97704.19;4485714;32;20180;-72
2022/12/16 01:30:11;;;;;;;13.93;6.90;;;;;;;2.29;100.00;97707.84;4485838;32;20091;-72
2022/12/16 01:32:38;;;;;;;14.00;6.28;;;;;;;2.27;100.00;97705.38;4485583;31;20096;-72
2022/12/16 01:35:06;;;;;;;11.95;5.97;;;;;;;2.39;100.00;97703.66;4485675;32;20154;-72
2022/12/16 01:37:49;;;;;;;13.10;6.10;;;;;;;2.37;100.00;97689.19;4485488;31;20095;-72
2022/12/16 01:40:19;;;;;;;14.20;5.57;;;;;;;2.38;100.00;97680.50;4485935;32;20168;-72
2022/12/16 01:42:46;;;;;;;10.18;5.55;;;;;;;2.29;100.00;97676.81;4484120;32;20083;-72
2022/12/16 01:45:33;;;;;;;13.15;6.28;;;;;;;2.30;100.00;97674.13;4485643;32;20158;-71
2022/12/16 01:48:09;;;;;;;13.80;6.07;;;;;;;2.36;100.00;97664.25;4485556;31;20495;-72
2022/12/16 01:50:37;;;;;;;13.50;5.97;;;;;;;2.30;100.00;97650.88;4484396;32;20125;-71
2022/12/16 01:53:05;;;;;;;14.57;6.03;;;;;;;2.35;100.00;97647.09;4485548;32;20148;-72
2022/12/16 01:55:37;;;;;;;13.38;6.22;;;;;;;2.33;100.00;97636.88;4485572;31;20119;-72
2022/12/16 01:58:11;;;;;;;13.20;5.32;;;;;;;2.37;100.00;97637.50;4485821;31;20108;-72
2022/12/16 02:00:38;;;;;;;13.00;5.18;;;;;;;2.27;100.00;97614.91;4485440;31;20437;-72
2022/12/16 02:03:06;;;;;;;17.15;6.25;;;;;;;2.30;100.00;97604.34;4484226;32;20093;-72
2022/12/16 02:05:38;;;;;;;11.12;6.55;;;;;;;2.37;100.00;97593.56;4483831;32;20155;-72
2022/12/16 02:08:05;;;;;;;15.27;5.82;;;;;;;2.30;100.00;97575.94;4484828;31;20493;-72
2022/12/16 02:10:41;;;;;;;20.75;5.57;;;;;;;2.25;100.00;97572.03;4469692;32;20161;-71
2022/12/16 02:13:22;;;;;;;12.88;5.43;;;;;;;2.17;100.00;97545.97;4469584;32;20110;-72
2022/12/16 02:15:49;;;;;;;26.60;6.15;;;;;;;2.09;100.00;97536.16;4468460;32;20080;-72
2022/12/16 02:18:39;;;;;;;19.90;5.12;;;;;;;2.01;100.00;97528.19;4469580;32;20165;-72
2022/12/16 02:21:14;;;;;;;13.32;5.75;;;;;;;2.04;100.00;97517.63;4468498;32;20101;-72
2022/12/16 02:23:56;;;;;;;12.77;5.87;;;;;;;2.08;100.00;97508.72;4468303;32;20572;-72
2022/12/16 02:26:35;;;;;;;16.75;5.95;;;;;;;2.13;100.00;97497.09;4469791;32;20144;-72
2022/12/16 02:29:27;;;;;;;16.60;5.95;;;;;;;2.17;100.00;97508.00;4469523;32;20092;-72
2022/12/16 02:32:10;;;;;;;12.52;5.40;;;;;;;2.25;100.00;97502.25;4469780;32;20123;-72
2022/12/16 02:35:05;;;;;;;16.87;5.78;;;;;;;2.25;100.00;97510.84;4468200;32;20153;-72
2022/12/16 02:37:42;;;;;;;15.45;4.78;;;;;;;2.28;100.00;97517.53;4469548;32;20077;-72
2022/12/16 02:40:19;;;;;;;8.80;4.80;;;;;;;2.34;100.00;97517.06;4468289;32;20167;-72
2022/12/16 02:42:50;;;;;;;18.12;6.82;;;;;;;2.29;100.00;97526.94;4469442;32;20093;-72
2022/12/16 02:45:29;;;;;;;15.65;6.70;;;;;;;2.30;100.00;97536.31;4468493;32;20118;-72
2022/12/16 02:47:56;;;;;;;18.60;6.72;;;;;;;2.44;100.00;97535.31;4468240;32;20098;-72
2022/12/16 02:50:40;;;;;;;14.13;6.32;;;;;;;2.52;100.00;97540.69;4469512;32;20100;-72
2022/12/16 02:53:08;;;;;;;11.40;5.12;;;;;;;2.64;100.00;97544.94;4468325;32;20549;-72
2022/12/16 02:55:46;;;;;;;16.30;8.10;;;;;;;2.70;100.00;97543.66;4468077;32;20096;-72
2022/12/16 02:58:22;;;;;;;17.45;6.75;;;;;;;2.67;100.00;97524.00;4469398;32;20069;-72
2022/12/16 03:01:30;;;;;;;17.12;7.72;;;;;;;2.79;100.00;97532.59;4469500;32;20119;-72
2022/12/16 03:04:11;;;;;;;22.35;5.93;;;;;;;2.93;100.00;97535.88;4420326;32;20127;-72
2022/12/16 03:06:39;;;;;;;10.40;5.25;;;;;;;2.86;100.00;97504.47;4420415;32;20188;-72
2022/12/16 03:09:08;;;;;;;18.37;7.22;;;;;;;2.78;100.00;97483.56;4419173;32;20150;-72
2022/12/16 03:11:37;;;;;;;20.88;6.55;;;;;;;2.87;100.00;97485.44;4435791;32;20706;-72
2022/12/16 03:14:06;;;;;;;52.95;7.75;;;;;;;2.69;100.00;97474.75;4435829;32;20121;-72
2022/12/16 03:16:33;;;;;;;26.85;6.90;;;;;;;2.67;100.00;97474.88;4435809;32;20101;-72
2022/12/16 03:19:03;;;;;;;10.27;5.05;;;;;;;2.72;100.00;97486.63;4435948;32;20101;-72
2022/12/16 03:21:36;;;;;;;9.48;5.12;;;;;;;2.71;100.00;97459.12;4429404;32;20117;-72
2022/12/16 03:24:06;;;;;;;10.48;5.93;;;;;;;2.78;100.00;97445.59;4423259;32;20105;-72
2022/12/16 03:26:39;;;;;;;11.75;5.65;;;;;;;2.91;100.00;97471.31;4435772;32;20241;-72
2022/12/16 03:29:54;;;;;;;11.12;5.28;;;;;;;2.96;100.00;97474.34;4423193;32;20235;-72
2022/12/16 03:32:52;;;;;;;8.27;4.62;;;;;;;2.88;100.00;97461.22;4360024;32;20107;-72
2022/12/16 03:35:27;;;;;;;11.32;6.12;;;;;;;3.02;100.00;97473.88;4359124;32;20212;-72
2022/12/16 03:37:56;;;;;;;9.18;4.65;;;;;;;2.96;100.00;97468.38;4360150;32;20207;-72
2022/12/16 03:40:25;;;;;;;11.23;5.22;;;;;;;2.91;100.00;97460.16;4383616;32;20106;-72
2022/12/16 03:42:52;;;;;;;6.15;3.45;;;;;;;3.07;100.00;97459.75;4392281;32;20114;-72
2022/12/16 03:45:25;;;;;;;7.05;3.78;;;;;;;3.07;100.00;97452.00;4392354;32;20132;-72
2022/12/16 03:47:52;;;;;;;8.07;4.07;;;;;;;3.14;100.00;97468.69;4392418;32;20144;-72
2022/12/16 03:50:23;;;;;;;7.70;3.70;;;;;;;3.20;100.00;97460.41;4404638;32;20597;-72
2022/12/16 03:52:50;;;;;;;8.05;4.55;;;;;;;3.12;100.00;97452.44;4404914;32;20131;-72
2022/12/16 03:55:17;;;;;;;9.40;4.57;;;;;;;3.06;100.00;97447.75;4404787;32;20109;-72
2022/12/16 03:57:44;;;;;;;8.38;4.53;;;;;;;2.98;100.00;97456.97;4404621;32;20094;-72
2022/12/16 04:00:13;;;;;;;8.85;4.68;;;;;;;2.93;100.00;97448.72;4404675;32;20086;-72
2022/12/16 04:02:40;;;;;;;8.20;4.68;;;;;;;3.01;100.00;97436.03;4404663;32;20423;-72
2022/12/16 04:05:08;;;;;;;5.87;3.50;;;;;;;3.01;100.00;97430.00;4404529;32;20467;-72
2022/12/16 04:07:35;;;;;;;16.42;4.90;;;;;;;3.11;100.00;97427.53;4413720;32;20195;-72
2022/12/16 04:10:07;;;;;;;14.82;4.97;;;;;;;3.06;100.00;97432.22;4470744;31;20092;-72
2022/12/16 04:27:23;;;;;;;20.05;5.37;;;;;;;3.20;100.00;97413.84;4484036;31;20092;-72
2022/12/16 04:29:23;;;;;;;13.27;4.75;;;;;;;3.31;100.00;97424.13;4484157;31;20093;-72
2022/12/16 04:31:51;;;;;;;19.80;6.15;;;;;;;3.36;100.00;97424.59;4484118;31;20191;-72
2022/12/16 04:34:25;;;;;;;25.17;6.30;;;;;;;3.45;100.00;97412.69;4484008;31;20165;-72
